Terminal Aerodrome Forecast
Issued by NWS Atlanta, GA

Current Version | Previous Version | Text Only | Print | Product List | Glossary On
Versions: 1 2 3 4 5 6 7 8 9 10 11 12 13 14 15 16 17 18 19 20 21 22 23 24 25 26 27 28 29 30 31
985
FTUS42 KFFC 231740
TAFAHN
TAF
KAHN 231740Z 2318/2418 07006KT P6SM SCT050
     FM240100 00000KT P6SM SCT250
      TEMPO 2409/2412 5SM BR
     FM241600 07008KT P6SM SCT040=

USA.gov is the U.S. government's official web portal to all federal, state and local government web resources and services.